EZY13PC EGPH-EGKK
Flight info
| Callsign | EZY13PC |
|---|---|
| Flight time | 0h 59m |
| Altitude | 33000 |
| Route | GOSAM P600 FENIK L612 NAVSO DCT KEPAD L151 DISIT |
| Aircraft | A320/M-SDE3FGHIRWY/LB1 |
Departure
| Time | 2026-05-04 11:43 |
|---|---|
| Airport | Edinburgh Airport (EGPH) |
Arrival
| Time | 2026-05-04 12:43 |
|---|---|
| Airport | London Gatwick Airport (EGKK) |
| Time | Latitude | Longitude | Altitude | Speed | Heading |
|---|---|---|---|---|---|
| 2026-05-04 11:17 | 55.94903 | -3.36492 | 102 ft | 0 kts | 147° |
| 2026-05-04 11:33 | 55.94926 | -3.36517 | 101 ft | 3 kts | 147° |
| 2026-05-04 11:33 | 55.94943 | -3.36537 | 104 ft | 3 kts | 147° |
| 2026-05-04 11:33 | 55.94959 | -3.36560 | 106 ft | 3 kts | 109° |
| 2026-05-04 11:34 | 55.94958 | -3.36591 | 108 ft | 3 kts | 51° |
| 2026-05-04 11:34 | 55.94942 | -3.36620 | 104 ft | 3 kts | 49° |
| 2026-05-04 11:34 | 55.94936 | -3.36634 | 108 ft | 2 kts | 58° |
| 2026-05-04 11:36 | 55.94939 | -3.36625 | 108 ft | 1 kts | 57° |
| 2026-05-04 11:37 | 55.94945 | -3.36610 | 105 ft | 1 kts | 57° |
| 2026-05-04 11:37 | 55.94952 | -3.36589 | 104 ft | 4 kts | 57° |
| 2026-05-04 11:37 | 55.94966 | -3.36549 | 107 ft | 3 kts | 58° |
| 2026-05-04 11:37 | 55.94993 | -3.36467 | 108 ft | 10 kts | 59° |
| 2026-05-04 11:38 | 55.95037 | -3.36392 | 109 ft | 7 kts | 9° |
| 2026-05-04 11:38 | 55.95069 | -3.36399 | 111 ft | 5 kts | 0° |
| 2026-05-04 11:38 | 55.95111 | -3.36348 | 110 ft | 13 kts | 55° |
| 2026-05-04 11:38 | 55.95176 | -3.36160 | 108 ft | 19 kts | 58° |
| 2026-05-04 11:39 | 55.95246 | -3.35953 | 106 ft | 19 kts | 58° |
| 2026-05-04 11:39 | 55.95311 | -3.35762 | 107 ft | 17 kts | 58° |
| 2026-05-04 11:40 | 55.95492 | -3.35433 | 108 ft | 0 kts | 328° |
| 2026-05-04 11:41 | 55.95493 | -3.35434 | 106 ft | 2 kts | 328° |
| 2026-05-04 11:41 | 55.95523 | -3.35467 | 108 ft | 6 kts | 328° |
| 2026-05-04 11:42 | 55.95562 | -3.35520 | 108 ft | 10 kts | 307° |
| 2026-05-04 11:42 | 55.95549 | -3.35634 | 108 ft | 10 kts | 238° |
| 2026-05-04 11:42 | 55.95541 | -3.35658 | 109 ft | 0 kts | 238° |
| 2026-05-04 11:43 | 55.95520 | -3.35719 | 110 ft | 30 kts | 238° |
| 2026-05-04 11:43 | 55.95277 | -3.36443 | 108 ft | 101 kts | 238° |
| 2026-05-04 11:43 | 55.94820 | -3.37810 | 156 ft | 149 kts | 243° |
| 2026-05-04 11:43 | 55.94296 | -3.39414 | 839 ft | 150 kts | 242° |
| 2026-05-04 11:44 | 55.93756 | -3.41019 | 1636 ft | 154 kts | 241° |
| 2026-05-04 11:44 | 55.93158 | -3.42751 | 2167 ft | 173 kts | 241° |
| 2026-05-04 11:44 | 55.92481 | -3.44690 | 2631 ft | 197 kts | 240° |
| 2026-05-04 11:44 | 55.91707 | -3.46895 | 3152 ft | 222 kts | 239° |
| 2026-05-04 11:45 | 55.90852 | -3.49347 | 3835 ft | 243 kts | 241° |
| 2026-05-04 11:45 | 55.90240 | -3.52169 | 4779 ft | 248 kts | 259° |
| 2026-05-04 11:45 | 55.89942 | -3.55217 | 5745 ft | 252 kts | 261° |
| 2026-05-04 11:45 | 55.89653 | -3.58339 | 6004 ft | 257 kts | 261° |
| 2026-05-04 11:46 | 55.89360 | -3.61471 | 6003 ft | 255 kts | 261° |
| 2026-05-04 11:46 | 55.89063 | -3.64574 | 6008 ft | 254 kts | 261° |
| 2026-05-04 11:46 | 55.88759 | -3.67679 | 6027 ft | 254 kts | 261° |
| 2026-05-04 11:46 | 55.88451 | -3.70772 | 6121 ft | 255 kts | 261° |
| 2026-05-04 11:47 | 55.88140 | -3.73891 | 6254 ft | 256 kts | 261° |
| 2026-05-04 11:47 | 55.87829 | -3.76996 | 6571 ft | 254 kts | 261° |
| 2026-05-04 11:47 | 55.87515 | -3.80101 | 7199 ft | 257 kts | 261° |
| 2026-05-04 11:47 | 55.87201 | -3.83251 | 7927 ft | 259 kts | 261° |
| 2026-05-04 11:48 | 55.86890 | -3.86395 | 8743 ft | 263 kts | 261° |
| 2026-05-04 11:48 | 55.86565 | -3.89674 | 9651 ft | 267 kts | 261° |
| 2026-05-04 11:48 | 55.86239 | -3.92959 | 10487 ft | 272 kts | 261° |
| 2026-05-04 11:48 | 55.85898 | -3.96382 | 11017 ft | 289 kts | 261° |
| 2026-05-04 11:49 | 55.85541 | -3.99950 | 11518 ft | 305 kts | 261° |
| 2026-05-04 11:49 | 55.85160 | -4.03749 | 12034 ft | 319 kts | 261° |
| 2026-05-04 11:49 | 55.84753 | -4.07788 | 12496 ft | 335 kts | 260° |
| 2026-05-04 11:49 | 55.84035 | -4.11721 | 13128 ft | 345 kts | 244° |
| 2026-05-04 11:50 | 55.82598 | -4.15176 | 13854 ft | 354 kts | 226° |
| 2026-05-04 11:50 | 55.80627 | -4.17870 | 14516 ft | 360 kts | 218° |
| 2026-05-04 11:50 | 55.78570 | -4.20463 | 15191 ft | 364 kts | 218° |
| 2026-05-04 11:50 | 55.76450 | -4.22957 | 15859 ft | 369 kts | 211° |
| 2026-05-04 11:51 | 55.74048 | -4.24701 | 16513 ft | 377 kts | 198° |
| 2026-05-04 11:51 | 55.71430 | -4.25448 | 17166 ft | 385 kts | 185° |
| 2026-05-04 11:51 | 55.68742 | -4.25102 | 17831 ft | 392 kts | 171° |
| 2026-05-04 11:51 | 55.66116 | -4.23674 | 18450 ft | 399 kts | 159° |
| 2026-05-04 11:52 | 55.63620 | -4.21446 | 19003 ft | 404 kts | 152° |
| 2026-05-04 11:52 | 55.61154 | -4.19010 | 19581 ft | 408 kts | 152° |
| 2026-05-04 11:52 | 55.58661 | -4.16557 | 20157 ft | 411 kts | 152° |
| 2026-05-04 11:52 | 55.56150 | -4.14097 | 20724 ft | 415 kts | 152° |
| 2026-05-04 11:53 | 55.53608 | -4.11620 | 21274 ft | 418 kts | 152° |
| 2026-05-04 11:53 | 55.51054 | -4.09138 | 21806 ft | 422 kts | 152° |
| 2026-05-04 11:53 | 55.48440 | -4.06599 | 22343 ft | 425 kts | 151° |
| 2026-05-04 11:53 | 55.45835 | -4.04068 | 22864 ft | 429 kts | 151° |
| 2026-05-04 11:55 | 55.27117 | -3.85999 | 25799 ft | 447 kts | 150° |
| 2026-05-04 11:55 | 55.24390 | -3.83381 | 26161 ft | 450 kts | 150° |
| 2026-05-04 11:56 | 55.21559 | -3.80975 | 26522 ft | 453 kts | 158° |
| 2026-05-04 11:56 | 55.18573 | -3.79153 | 26878 ft | 456 kts | 161° |
| 2026-05-04 11:56 | 55.15597 | -3.77412 | 27221 ft | 458 kts | 161° |
| 2026-05-04 11:56 | 55.12566 | -3.75649 | 27561 ft | 461 kts | 161° |
| 2026-05-04 11:57 | 55.10171 | -3.74256 | 27819 ft | 463 kts | 161° |
| 2026-05-04 11:57 | 55.07105 | -3.72467 | 28153 ft | 466 kts | 161° |
| 2026-05-04 11:57 | 55.04031 | -3.70669 | 28455 ft | 468 kts | 161° |
| 2026-05-04 11:57 | 55.00927 | -3.68859 | 28759 ft | 471 kts | 161° |
| 2026-05-04 11:58 | 54.97859 | -3.67078 | 29046 ft | 473 kts | 161° |
| 2026-05-04 11:58 | 54.94726 | -3.65266 | 29334 ft | 475 kts | 160° |
| 2026-05-04 11:58 | 54.91583 | -3.63453 | 29614 ft | 478 kts | 160° |
| 2026-05-04 11:58 | 54.88418 | -3.61629 | 29849 ft | 480 kts | 160° |
| 2026-05-04 11:59 | 54.85241 | -3.59795 | 30102 ft | 482 kts | 160° |
| 2026-05-04 11:59 | 54.82056 | -3.57952 | 30362 ft | 482 kts | 160° |
| 2026-05-04 11:59 | 54.78877 | -3.56114 | 30677 ft | 481 kts | 160° |
| 2026-05-04 11:59 | 54.75705 | -3.54287 | 31007 ft | 479 kts | 160° |
| 2026-05-04 12:00 | 54.72546 | -3.52476 | 31350 ft | 477 kts | 160° |
| 2026-05-04 12:00 | 54.69404 | -3.50676 | 31702 ft | 475 kts | 160° |
| 2026-05-04 12:00 | 54.66269 | -3.48882 | 32051 ft | 473 kts | 160° |
| 2026-05-04 12:00 | 54.63148 | -3.47105 | 32394 ft | 471 kts | 160° |
| 2026-05-04 12:01 | 54.60037 | -3.45340 | 32765 ft | 469 kts | 160° |
| 2026-05-04 12:01 | 54.56946 | -3.43586 | 33006 ft | 468 kts | 160° |
| 2026-05-04 12:02 | 54.38614 | -3.33206 | 33078 ft | 460 kts | 159° |
| 2026-05-04 12:03 | 54.32527 | -3.29798 | 33077 ft | 460 kts | 159° |
| 2026-05-04 12:03 | 54.26452 | -3.26390 | 33078 ft | 459 kts | 159° |
| 2026-05-04 12:04 | 54.20391 | -3.22993 | 33076 ft | 458 kts | 159° |
| 2026-05-04 12:04 | 54.14330 | -3.19616 | 33080 ft | 458 kts | 159° |
| 2026-05-04 12:05 | 54.08275 | -3.16260 | 33082 ft | 457 kts | 159° |
| 2026-05-04 12:05 | 54.03252 | -3.13479 | 33085 ft | 457 kts | 159° |
| 2026-05-04 12:06 | 53.97205 | -3.10143 | 33083 ft | 456 kts | 159° |
| 2026-05-04 12:06 | 53.91196 | -3.06836 | 33081 ft | 456 kts | 158° |
| 2026-05-04 12:07 | 53.85156 | -3.03520 | 33082 ft | 456 kts | 158° |
| 2026-05-04 12:07 | 53.79117 | -3.00224 | 33082 ft | 456 kts | 158° |
| 2026-05-04 12:08 | 53.73095 | -2.96937 | 33078 ft | 455 kts | 158° |
| 2026-05-04 12:08 | 53.67053 | -2.93650 | 33078 ft | 455 kts | 158° |
| 2026-05-04 12:09 | 53.61029 | -2.90382 | 33075 ft | 455 kts | 158° |
| 2026-05-04 12:09 | 53.55119 | -2.87195 | 33075 ft | 455 kts | 158° |
| 2026-05-04 12:10 | 53.48978 | -2.83895 | 33079 ft | 454 kts | 158° |
| 2026-05-04 12:10 | 53.42990 | -2.80667 | 33090 ft | 454 kts | 158° |
| 2026-05-04 12:11 | 53.37014 | -2.77461 | 33094 ft | 454 kts | 158° |
| 2026-05-04 12:11 | 53.31002 | -2.74247 | 33097 ft | 453 kts | 158° |
| 2026-05-04 12:12 | 53.24995 | -2.71053 | 33098 ft | 453 kts | 158° |
| 2026-05-04 12:12 | 53.18995 | -2.67874 | 33096 ft | 452 kts | 158° |
| 2026-05-04 12:14 | 52.95084 | -2.55265 | 33097 ft | 450 kts | 158° |
| 2026-05-04 12:15 | 52.89122 | -2.52144 | 33095 ft | 449 kts | 158° |
| 2026-05-04 12:15 | 52.83170 | -2.49020 | 33091 ft | 448 kts | 156° |
| 2026-05-04 12:16 | 52.77727 | -2.44297 | 33084 ft | 440 kts | 142° |
| 2026-05-04 12:16 | 52.72657 | -2.38665 | 33059 ft | 440 kts | 143° |
| 2026-05-04 12:17 | 52.67548 | -2.33068 | 33054 ft | 440 kts | 143° |
| 2026-05-04 12:17 | 52.62460 | -2.27500 | 33057 ft | 441 kts | 143° |
| 2026-05-04 12:18 | 52.57686 | -2.22261 | 33059 ft | 441 kts | 144° |
| 2026-05-04 12:18 | 52.52597 | -2.16702 | 32872 ft | 443 kts | 144° |
| 2026-05-04 12:19 | 52.50028 | -2.13901 | 31887 ft | 446 kts | 144° |
| 2026-05-04 12:19 | 52.47425 | -2.11068 | 30849 ft | 450 kts | 144° |
| 2026-05-04 12:19 | 52.45196 | -2.08647 | 29836 ft | 453 kts | 145° |
| 2026-05-04 12:19 | 52.42559 | -2.05791 | 28622 ft | 455 kts | 146° |
| 2026-05-04 12:20 | 52.39925 | -2.02948 | 27658 ft | 452 kts | 146° |
| 2026-05-04 12:20 | 52.37312 | -2.00131 | 26877 ft | 446 kts | 146° |
| 2026-05-04 12:20 | 52.34750 | -1.97367 | 26245 ft | 438 kts | 147° |
| 2026-05-04 12:20 | 52.32235 | -1.94651 | 25807 ft | 429 kts | 147° |
| 2026-05-04 12:21 | 52.29755 | -1.91974 | 25099 ft | 425 kts | 147° |
| 2026-05-04 12:21 | 52.27298 | -1.89323 | 24420 ft | 422 kts | 147° |
| 2026-05-04 12:21 | 52.24855 | -1.86693 | 23748 ft | 419 kts | 148° |
| 2026-05-04 12:21 | 52.22430 | -1.84089 | 23010 ft | 416 kts | 148° |
| 2026-05-04 12:22 | 52.20030 | -1.81517 | 22403 ft | 410 kts | 148° |
| 2026-05-04 12:22 | 52.17657 | -1.78973 | 21789 ft | 405 kts | 148° |
| 2026-05-04 12:22 | 52.15318 | -1.76467 | 21231 ft | 400 kts | 148° |
| 2026-05-04 12:22 | 52.13001 | -1.73996 | 20670 ft | 396 kts | 148° |
| 2026-05-04 12:23 | 52.10707 | -1.71558 | 20142 ft | 392 kts | 148° |
| 2026-05-04 12:23 | 52.08427 | -1.69141 | 19749 ft | 391 kts | 148° |
| 2026-05-04 12:23 | 52.06145 | -1.66727 | 19419 ft | 392 kts | 148° |
| 2026-05-04 12:23 | 52.03867 | -1.64315 | 19087 ft | 390 kts | 147° |
| 2026-05-04 12:24 | 52.01599 | -1.61906 | 18749 ft | 388 kts | 147° |
| 2026-05-04 12:24 | 51.99348 | -1.59515 | 18399 ft | 386 kts | 147° |
| 2026-05-04 12:24 | 51.97103 | -1.57135 | 18037 ft | 385 kts | 147° |
| 2026-05-04 12:24 | 51.94868 | -1.54768 | 17706 ft | 383 kts | 147° |
| 2026-05-04 12:25 | 51.92643 | -1.52414 | 17373 ft | 381 kts | 148° |
| 2026-05-04 12:25 | 51.90429 | -1.50078 | 17040 ft | 379 kts | 148° |
| 2026-05-04 12:25 | 51.88217 | -1.47751 | 16707 ft | 378 kts | 148° |
| 2026-05-04 12:25 | 51.86017 | -1.45442 | 16381 ft | 376 kts | 148° |
| 2026-05-04 12:26 | 51.83825 | -1.43146 | 16053 ft | 374 kts | 148° |
| 2026-05-04 12:26 | 51.81642 | -1.40863 | 15728 ft | 373 kts | 148° |
| 2026-05-04 12:26 | 51.79504 | -1.38626 | 15401 ft | 371 kts | 148° |
| 2026-05-04 12:26 | 51.77341 | -1.36358 | 15080 ft | 370 kts | 148° |
| 2026-05-04 12:27 | 51.75186 | -1.34100 | 14904 ft | 369 kts | 148° |
| 2026-05-04 12:27 | 51.73063 | -1.31880 | 14755 ft | 368 kts | 148° |
| 2026-05-04 12:27 | 51.70913 | -1.29637 | 14604 ft | 368 kts | 148° |
| 2026-05-04 12:27 | 51.68768 | -1.27401 | 14432 ft | 367 kts | 148° |
| 2026-05-04 12:28 | 51.66597 | -1.25144 | 14282 ft | 366 kts | 148° |
| 2026-05-04 12:28 | 51.64459 | -1.22921 | 14128 ft | 366 kts | 148° |
| 2026-05-04 12:28 | 51.62348 | -1.20729 | 13978 ft | 365 kts | 148° |
| 2026-05-04 12:28 | 51.60216 | -1.18517 | 13823 ft | 365 kts | 148° |
| 2026-05-04 12:29 | 51.58085 | -1.16305 | 13666 ft | 364 kts | 148° |
| 2026-05-04 12:29 | 51.55957 | -1.14103 | 13513 ft | 363 kts | 148° |
| 2026-05-04 12:29 | 51.53835 | -1.11913 | 13361 ft | 362 kts | 148° |
| 2026-05-04 12:29 | 51.51719 | -1.09729 | 13219 ft | 361 kts | 149° |
| 2026-05-04 12:30 | 51.49605 | -1.07553 | 13061 ft | 361 kts | 149° |
| 2026-05-04 12:30 | 51.47499 | -1.05383 | 12766 ft | 359 kts | 149° |
| 2026-05-04 12:30 | 51.45401 | -1.03219 | 12450 ft | 358 kts | 149° |
| 2026-05-04 12:30 | 51.43489 | -1.00820 | 12145 ft | 358 kts | 134° |
| 2026-05-04 12:31 | 51.42083 | -0.97535 | 11786 ft | 358 kts | 122° |
| 2026-05-04 12:31 | 51.40850 | -0.94065 | 11434 ft | 357 kts | 121° |
| 2026-05-04 12:31 | 51.39634 | -0.90601 | 11085 ft | 356 kts | 121° |
| 2026-05-04 12:31 | 51.38487 | -0.87335 | 10729 ft | 354 kts | 121° |
| 2026-05-04 12:32 | 51.37107 | -0.84124 | 10361 ft | 347 kts | 136° |
| 2026-05-04 12:32 | 51.33276 | -0.79994 | 9865 ft | 318 kts | 151° |
| 2026-05-04 12:32 | 51.31419 | -0.78222 | 9574 ft | 302 kts | 151° |
| 2026-05-04 12:33 | 51.29654 | -0.76547 | 9249 ft | 289 kts | 151° |
| 2026-05-04 12:33 | 51.27944 | -0.74932 | 8936 ft | 283 kts | 151° |
| 2026-05-04 12:33 | 51.26255 | -0.73343 | 8628 ft | 280 kts | 151° |
| 2026-05-04 12:33 | 51.24582 | -0.71778 | 8312 ft | 278 kts | 151° |
| 2026-05-04 12:34 | 51.22916 | -0.70229 | 8067 ft | 276 kts | 151° |
| 2026-05-04 12:34 | 51.21248 | -0.68688 | 8022 ft | 276 kts | 151° |
| 2026-05-04 12:34 | 51.19583 | -0.67154 | 8027 ft | 277 kts | 151° |
| 2026-05-04 12:34 | 51.17910 | -0.65617 | 7809 ft | 279 kts | 151° |
| 2026-05-04 12:35 | 51.16282 | -0.64126 | 7444 ft | 277 kts | 152° |
| 2026-05-04 12:35 | 51.14499 | -0.63015 | 7104 ft | 273 kts | 168° |
| 2026-05-04 12:36 | 51.12619 | -0.62446 | 6725 ft | 271 kts | 171° |
| 2026-05-04 12:36 | 51.10783 | -0.61960 | 6366 ft | 270 kts | 171° |
| 2026-05-04 12:36 | 51.09123 | -0.61534 | 6043 ft | 269 kts | 171° |
| 2026-05-04 12:36 | 51.07307 | -0.61074 | 5998 ft | 268 kts | 171° |
| 2026-05-04 12:37 | 51.05489 | -0.60391 | 5904 ft | 271 kts | 156° |
| 2026-05-04 12:37 | 51.04006 | -0.58607 | 5508 ft | 268 kts | 128° |
| 2026-05-04 12:37 | 51.03241 | -0.55946 | 5095 ft | 267 kts | 99° |
| 2026-05-04 12:37 | 51.03310 | -0.53369 | 4704 ft | 259 kts | 73° |
| 2026-05-04 12:38 | 51.04181 | -0.50972 | 4282 ft | 247 kts | 46° |
| 2026-05-04 12:38 | 51.05401 | -0.49119 | 3852 ft | 238 kts | 41° |
| 2026-05-04 12:38 | 51.06627 | -0.47398 | 3426 ft | 232 kts | 41° |
| 2026-05-04 12:38 | 51.07828 | -0.45732 | 3005 ft | 226 kts | 41° |
| 2026-05-04 12:39 | 51.09002 | -0.44106 | 2593 ft | 221 kts | 41° |
| 2026-05-04 12:39 | 51.10135 | -0.42538 | 2194 ft | 209 kts | 41° |
| 2026-05-04 12:39 | 51.11181 | -0.41080 | 2034 ft | 192 kts | 44° |
| 2026-05-04 12:39 | 51.11919 | -0.39417 | 2005 ft | 175 kts | 67° |
| 2026-05-04 12:40 | 51.12229 | -0.37598 | 2002 ft | 167 kts | 77° |
| 2026-05-04 12:40 | 51.12480 | -0.35810 | 2004 ft | 165 kts | 77° |
| 2026-05-04 12:40 | 51.12728 | -0.34039 | 1896 ft | 163 kts | 77° |
| 2026-05-04 12:40 | 51.12968 | -0.32326 | 1737 ft | 151 kts | 77° |
| 2026-05-04 12:41 | 51.13190 | -0.30730 | 1524 ft | 145 kts | 77° |
| 2026-05-04 12:41 | 51.13397 | -0.29247 | 1343 ft | 142 kts | 77° |
| 2026-05-04 12:41 | 51.13608 | -0.27725 | 1149 ft | 140 kts | 77° |
| 2026-05-04 12:41 | 51.13800 | -0.26349 | 974 ft | 138 kts | 77° |
| 2026-05-04 12:42 | 51.14005 | -0.24877 | 783 ft | 135 kts | 76° |
| 2026-05-04 12:42 | 51.14207 | -0.23418 | 584 ft | 135 kts | 77° |
| 2026-05-04 12:42 | 51.14410 | -0.21964 | 399 ft | 133 kts | 78° |
| 2026-05-04 12:42 | 51.14607 | -0.20542 | 239 ft | 132 kts | 77° |
| 2026-05-04 12:43 | 51.14784 | -0.19271 | 217 ft | 106 kts | 77° |
| 2026-05-04 12:43 | 51.14903 | -0.18398 | 214 ft | 57 kts | 77° |
| 2026-05-04 12:43 | 51.14971 | -0.18008 | 213 ft | 27 kts | 66° |
| 2026-05-04 12:43 | 51.15068 | -0.17778 | 207 ft | 21 kts | 40° |
| 2026-05-04 12:44 | 51.15185 | -0.17738 | 212 ft | 17 kts | 28° |
| 2026-05-04 12:44 | 51.15191 | -0.17655 | 211 ft | 10 kts | 90° |
| 2026-05-04 12:44 | 51.15205 | -0.17528 | 209 ft | 13 kts | 75° |
| 2026-05-04 12:44 | 51.15215 | -0.17464 | 209 ft | 0 kts | 77° |
| 2026-05-04 12:54 | 51.15224 | -0.17409 | 207 ft | 9 kts | 76° |
| 2026-05-04 12:54 | 51.15272 | -0.17347 | 207 ft | 13 kts | 359° |
| 2026-05-04 12:54 | 51.15361 | -0.17378 | 205 ft | 13 kts | 347° |
| 2026-05-04 12:55 | 51.15443 | -0.17408 | 208 ft | 12 kts | 347° |
| 2026-05-04 12:55 | 51.15521 | -0.17434 | 210 ft | 11 kts | 348° |
| 2026-05-04 12:55 | 51.15586 | -0.17409 | 207 ft | 11 kts | 60° |
| 2026-05-04 12:55 | 51.15614 | -0.17247 | 205 ft | 18 kts | 76° |
| 2026-05-04 12:56 | 51.15646 | -0.17058 | 205 ft | 13 kts | 52° |
| 2026-05-04 12:56 | 51.15737 | -0.17060 | 205 ft | 14 kts | 347° |
| 2026-05-04 12:56 | 51.15808 | -0.17118 | 207 ft | 8 kts | 290° |
| 2026-05-04 12:56 | 51.15838 | -0.17160 | 208 ft | 6 kts | 343° |
| 2026-05-04 12:57 | 51.15871 | -0.17182 | 209 ft | 5 kts | 334° |
| 2026-05-04 12:57 | 51.15891 | -0.17197 | 206 ft | 1 kts | 335° |
| 2026-05-04 12:57 | 51.15893 | -0.17198 | 207 ft | 0 kts | 335° |